sensor_id;sensor_type;location;lat;lon;timestamp;P1;durP1;ratioP1;P2;durP2;ratioP2
76599;SDS011;65489;52.048;6.090;2023-05-10T00:00:08;0.93;;;0.40;;
76599;SDS011;65489;52.048;6.090;2023-05-10T00:02:38;0.30;;;0.28;;
76599;SDS011;65489;52.048;6.090;2023-05-10T00:05:04;0.60;;;0.40;;
76599;SDS011;65489;52.048;6.090;2023-05-10T00:07:30;1.20;;;0.77;;
76599;SDS011;65489;52.048;6.090;2023-05-10T00:09:55;0.52;;;0.50;;
76599;SDS011;65489;52.048;6.090;2023-05-10T00:12:20;0.63;;;0.60;;
76599;SDS011;65489;52.048;6.090;2023-05-10T00:14:46;0.55;;;0.45;;
76599;SDS011;65489;52.048;6.090;2023-05-10T00:17:11;0.68;;;0.50;;
76599;SDS011;65489;52.048;6.090;2023-05-10T00:19:37;0.80;;;0.50;;
76599;SDS011;65489;52.048;6.090;2023-05-10T00:22:02;0.63;;;0.47;;
76599;SDS011;65489;52.048;6.090;2023-05-10T00:24:28;0.60;;;0.55;;
76599;SDS011;65489;52.048;6.090;2023-05-10T00:26:53;0.90;;;0.50;;
76599;SDS011;65489;52.048;6.090;2023-05-10T00:29:19;0.82;;;0.70;;
76599;SDS011;65489;52.048;6.090;2023-05-10T00:31:44;0.50;;;0.45;;
76599;SDS011;65489;52.048;6.090;2023-05-10T00:34:10;1.23;;;0.50;;
76599;SDS011;65489;52.048;6.090;2023-05-10T00:36:36;0.90;;;0.63;;
76599;SDS011;65489;52.048;6.090;2023-05-10T00:39:01;1.02;;;0.80;;
76599;SDS011;65489;52.048;6.090;2023-05-10T00:41:28;0.68;;;0.55;;
76599;SDS011;65489;52.048;6.090;2023-05-10T00:43:54;0.52;;;0.50;;
76599;SDS011;65489;52.048;6.090;2023-05-10T00:46:20;0.85;;;0.57;;
76599;SDS011;65489;52.048;6.090;2023-05-10T00:48:46;0.60;;;0.57;;
76599;SDS011;65489;52.048;6.090;2023-05-10T00:51:12;0.75;;;0.70;;
76599;SDS011;65489;52.048;6.090;2023-05-10T00:53:38;0.65;;;0.60;;
76599;SDS011;65489;52.048;6.090;2023-05-10T00:56:03;1.27;;;0.95;;
76599;SDS011;65489;52.048;6.090;2023-05-10T00:58:29;0.88;;;0.77;;
76599;SDS011;65489;52.048;6.090;2023-05-10T01:00:55;1.02;;;0.80;;
76599;SDS011;65489;52.048;6.090;2023-05-10T01:03:22;0.95;;;0.80;;
76599;SDS011;65489;52.048;6.090;2023-05-10T01:05:47;0.80;;;0.68;;
76599;SDS011;65489;52.048;6.090;2023-05-10T01:08:12;0.80;;;0.75;;
76599;SDS011;65489;52.048;6.090;2023-05-10T01:10:38;0.65;;;0.65;;
76599;SDS011;65489;52.048;6.090;2023-05-10T01:13:04;0.63;;;0.60;;
76599;SDS011;65489;52.048;6.090;2023-05-10T01:15:29;0.80;;;0.70;;
76599;SDS011;65489;52.048;6.090;2023-05-10T01:17:55;1.33;;;1.02;;
76599;SDS011;65489;52.048;6.090;2023-05-10T01:20:22;0.93;;;0.80;;
76599;SDS011;65489;52.048;6.090;2023-05-10T01:26:02;1.58;;;1.17;;
76599;SDS011;65489;52.048;6.090;2023-05-10T01:34:35;1.88;;;1.20;;
76599;SDS011;65489;52.048;6.090;2023-05-10T01:37:09;1.38;;;1.00;;
76599;SDS011;65489;52.048;6.090;2023-05-10T01:39:43;1.33;;;0.93;;
76599;SDS011;65489;52.048;6.090;2023-05-10T01:42:11;1.48;;;1.10;;
76599;SDS011;65489;52.048;6.090;2023-05-10T01:44:42;1.55;;;1.20;;
76599;SDS011;65489;52.048;6.090;2023-05-10T01:47:24;1.73;;;1.38;;
76599;SDS011;65489;52.048;6.090;2023-05-10T01:49:53;1.95;;;1.40;;
76599;SDS011;65489;52.048;6.090;2023-05-10T01:52:20;1.65;;;1.20;;
76599;SDS011;65489;52.048;6.090;2023-05-10T01:54:55;2.10;;;1.23;;
76599;SDS011;65489;52.048;6.090;2023-05-10T01:57:22;1.92;;;1.48;;
76599;SDS011;65489;52.048;6.090;2023-05-10T01:59:50;2.05;;;1.23;;
76599;SDS011;65489;52.048;6.090;2023-05-10T02:02:18;2.03;;;1.50;;
76599;SDS011;65489;52.048;6.090;2023-05-10T02:04:46;1.88;;;1.38;;
76599;SDS011;65489;52.048;6.090;2023-05-10T02:07:12;0.80;;;0.70;;
76599;SDS011;65489;52.048;6.090;2023-05-10T02:09:39;2.33;;;1.38;;
76599;SDS011;65489;52.048;6.090;2023-05-10T02:12:05;1.55;;;1.02;;
76599;SDS011;65489;52.048;6.090;2023-05-10T02:14:32;1.45;;;1.05;;
76599;SDS011;65489;52.048;6.090;2023-05-10T02:17:00;2.05;;;1.20;;
76599;SDS011;65489;52.048;6.090;2023-05-10T02:19:27;1.35;;;1.13;;
76599;SDS011;65489;52.048;6.090;2023-05-10T02:21:55;2.50;;;1.90;;
76599;SDS011;65489;52.048;6.090;2023-05-10T02:24:21;1.30;;;1.00;;
76599;SDS011;65489;52.048;6.090;2023-05-10T02:26:47;2.50;;;1.30;;
76599;SDS011;65489;52.048;6.090;2023-05-10T02:29:13;1.95;;;1.48;;
76599;SDS011;65489;52.048;6.090;2023-05-10T02:31:39;1.85;;;1.33;;
76599;SDS011;65489;52.048;6.090;2023-05-10T02:34:04;2.13;;;1.45;;
76599;SDS011;65489;52.048;6.090;2023-05-10T02:36:31;1.80;;;1.38;;
76599;SDS011;65489;52.048;6.090;2023-05-10T02:38:57;2.08;;;1.50;;
76599;SDS011;65489;52.048;6.090;2023-05-10T02:41:24;2.13;;;1.50;;
76599;SDS011;65489;52.048;6.090;2023-05-10T02:43:51;3.10;;;2.03;;
76599;SDS011;65489;52.048;6.090;2023-05-10T02:46:18;1.42;;;1.13;;
76599;SDS011;65489;52.048;6.090;2023-05-10T02:48:44;3.15;;;2.30;;
76599;SDS011;65489;52.048;6.090;2023-05-10T02:51:09;2.33;;;1.80;;
76599;SDS011;65489;52.048;6.090;2023-05-10T02:53:38;2.20;;;1.27;;
76599;SDS011;65489;52.048;6.090;2023-05-10T02:56:11;3.05;;;2.17;;
76599;SDS011;65489;52.048;6.090;2023-05-10T02:58:38;1.80;;;1.45;;
76599;SDS011;65489;52.048;6.090;2023-05-10T03:01:03;1.55;;;1.10;;
76599;SDS011;65489;52.048;6.090;2023-05-10T03:03:29;2.50;;;1.63;;
76599;SDS011;65489;52.048;6.090;2023-05-10T03:05:54;1.83;;;1.40;;
76599;SDS011;65489;52.048;6.090;2023-05-10T03:08:21;1.38;;;1.00;;
76599;SDS011;65489;52.048;6.090;2023-05-10T03:10:51;2.25;;;1.20;;
76599;SDS011;65489;52.048;6.090;2023-05-10T03:13:46;2.03;;;1.50;;
76599;SDS011;65489;52.048;6.090;2023-05-10T03:16:21;1.48;;;1.15;;
76599;SDS011;65489;52.048;6.090;2023-05-10T03:18:50;2.75;;;1.90;;
76599;SDS011;65489;52.048;6.090;2023-05-10T03:21:32;1.67;;;0.98;;
76599;SDS011;65489;52.048;6.090;2023-05-10T03:23:59;1.55;;;1.15;;
76599;SDS011;65489;52.048;6.090;2023-05-10T03:26:34;2.33;;;1.40;;
76599;SDS011;65489;52.048;6.090;2023-05-10T03:29:06;1.42;;;0.88;;
76599;SDS011;65489;52.048;6.090;2023-05-10T03:31:33;2.35;;;1.88;;
76599;SDS011;65489;52.048;6.090;2023-05-10T03:33:59;2.15;;;1.75;;
76599;SDS011;65489;52.048;6.090;2023-05-10T03:36:25;3.30;;;2.17;;
76599;SDS011;65489;52.048;6.090;2023-05-10T03:38:51;1.40;;;1.08;;
76599;SDS011;65489;52.048;6.090;2023-05-10T03:41:17;1.00;;;0.75;;
76599;SDS011;65489;52.048;6.090;2023-05-10T03:43:42;2.13;;;1.60;;
76599;SDS011;65489;52.048;6.090;2023-05-10T03:46:08;5.13;;;1.73;;
76599;SDS011;65489;52.048;6.090;2023-05-10T03:48:33;2.88;;;1.98;;
76599;SDS011;65489;52.048;6.090;2023-05-10T03:50:59;2.22;;;1.17;;
76599;SDS011;65489;52.048;6.090;2023-05-10T03:53:25;0.75;;;0.70;;
76599;SDS011;65489;52.048;6.090;2023-05-10T03:55:51;1.98;;;1.50;;
76599;SDS011;65489;52.048;6.090;2023-05-10T03:58:17;0.73;;;0.60;;
76599;SDS011;65489;52.048;6.090;2023-05-10T04:00:43;1.98;;;1.13;;
76599;SDS011;65489;52.048;6.090;2023-05-10T04:03:11;2.53;;;1.60;;
76599;SDS011;65489;52.048;6.090;2023-05-10T04:05:37;1.35;;;1.13;;
76599;SDS011;65489;52.048;6.090;2023-05-10T04:08:03;2.40;;;1.85;;
76599;SDS011;65489;52.048;6.090;2023-05-10T04:10:29;1.42;;;0.98;;
76599;SDS011;65489;52.048;6.090;2023-05-10T04:12:55;1.67;;;1.20;;
76599;SDS011;65489;52.048;6.090;2023-05-10T04:15:20;2.78;;;2.10;;
76599;SDS011;65489;52.048;6.090;2023-05-10T04:17:46;3.45;;;2.47;;
76599;SDS011;65489;52.048;6.090;2023-05-10T04:20:11;2.15;;;1.42;;
76599;SDS011;65489;52.048;6.090;2023-05-10T04:22:37;2.78;;;1.67;;
76599;SDS011;65489;52.048;6.090;2023-05-10T04:25:02;2.85;;;2.20;;
76599;SDS011;65489;52.048;6.090;2023-05-10T04:27:29;1.48;;;1.00;;
76599;SDS011;65489;52.048;6.090;2023-05-10T04:29:54;1.30;;;1.20;;
76599;SDS011;65489;52.048;6.090;2023-05-10T04:32:20;1.40;;;0.98;;
76599;SDS011;65489;52.048;6.090;2023-05-10T04:34:45;2.22;;;1.52;;
76599;SDS011;65489;52.048;6.090;2023-05-10T04:37:11;2.17;;;1.52;;
76599;SDS011;65489;52.048;6.090;2023-05-10T04:39:36;2.17;;;1.50;;
76599;SDS011;65489;52.048;6.090;2023-05-10T04:42:02;1.05;;;0.95;;
76599;SDS011;65489;52.048;6.090;2023-05-10T04:44:28;1.65;;;1.40;;
76599;SDS011;65489;52.048;6.090;2023-05-10T04:46:54;2.42;;;1.67;;
76599;SDS011;65489;52.048;6.090;2023-05-10T04:49:19;1.80;;;1.27;;
76599;SDS011;65489;52.048;6.090;2023-05-10T04:51:45;2.17;;;1.30;;
76599;SDS011;65489;52.048;6.090;2023-05-10T04:54:11;1.45;;;1.23;;
76599;SDS011;65489;52.048;6.090;2023-05-10T04:56:36;1.20;;;1.00;;
76599;SDS011;65489;52.048;6.090;2023-05-10T04:59:02;2.22;;;1.65;;
76599;SDS011;65489;52.048;6.090;2023-05-10T05:01:27;2.38;;;1.42;;
76599;SDS011;65489;52.048;6.090;2023-05-10T05:03:53;1.48;;;1.10;;
76599;SDS011;65489;52.048;6.090;2023-05-10T05:06:18;0.80;;;0.70;;
76599;SDS011;65489;52.048;6.090;2023-05-10T05:08:44;2.22;;;1.20;;
76599;SDS011;65489;52.048;6.090;2023-05-10T05:11:09;0.95;;;0.80;;
76599;SDS011;65489;52.048;6.090;2023-05-10T05:13:35;1.58;;;1.00;;
76599;SDS011;65489;52.048;6.090;2023-05-10T05:16:03;2.58;;;1.70;;
76599;SDS011;65489;52.048;6.090;2023-05-10T05:18:30;2.53;;;1.52;;
76599;SDS011;65489;52.048;6.090;2023-05-10T05:20:55;3.58;;;2.38;;
76599;SDS011;65489;52.048;6.090;2023-05-10T05:23:21;3.40;;;2.80;;
76599;SDS011;65489;52.048;6.090;2023-05-10T05:25:49;2.97;;;2.33;;
76599;SDS011;65489;52.048;6.090;2023-05-10T05:28:16;1.42;;;1.27;;
76599;SDS011;65489;52.048;6.090;2023-05-10T05:30:42;1.17;;;1.00;;
76599;SDS011;65489;52.048;6.090;2023-05-10T05:33:07;1.00;;;0.90;;
76599;SDS011;65489;52.048;6.090;2023-05-10T05:35:32;1.60;;;1.05;;
76599;SDS011;65489;52.048;6.090;2023-05-10T05:37:58;2.72;;;1.52;;
76599;SDS011;65489;52.048;6.090;2023-05-10T05:40:23;2.15;;;1.73;;
76599;SDS011;65489;52.048;6.090;2023-05-10T05:42:49;3.42;;;2.38;;
76599;SDS011;65489;52.048;6.090;2023-05-10T05:45:14;3.08;;;1.70;;
76599;SDS011;65489;52.048;6.090;2023-05-10T05:47:40;2.70;;;2.00;;
76599;SDS011;65489;52.048;6.090;2023-05-10T05:50:06;2.05;;;1.67;;
76599;SDS011;65489;52.048;6.090;2023-05-10T05:52:31;6.35;;;3.15;;
76599;SDS011;65489;52.048;6.090;2023-05-10T05:54:57;4.00;;;2.60;;
76599;SDS011;65489;52.048;6.090;2023-05-10T05:57:22;3.40;;;2.13;;
76599;SDS011;65489;52.048;6.090;2023-05-10T05:59:48;3.13;;;2.05;;
76599;SDS011;65489;52.048;6.090;2023-05-10T06:02:13;1.52;;;1.42;;
76599;SDS011;65489;52.048;6.090;2023-05-10T06:04:39;1.20;;;1.10;;
76599;SDS011;65489;52.048;6.090;2023-05-10T06:07:04;3.38;;;2.15;;
76599;SDS011;65489;52.048;6.090;2023-05-10T06:09:30;3.00;;;2.22;;
76599;SDS011;65489;52.048;6.090;2023-05-10T06:11:55;2.58;;;1.90;;
76599;SDS011;65489;52.048;6.090;2023-05-10T06:14:21;2.08;;;1.60;;
76599;SDS011;65489;52.048;6.090;2023-05-10T06:16:47;4.22;;;2.55;;
76599;SDS011;65489;52.048;6.090;2023-05-10T06:19:12;3.08;;;2.53;;
76599;SDS011;65489;52.048;6.090;2023-05-10T06:21:37;1.92;;;1.55;;
76599;SDS011;65489;52.048;6.090;2023-05-10T06:24:03;2.15;;;1.52;;
76599;SDS011;65489;52.048;6.090;2023-05-10T06:26:28;1.25;;;1.15;;
76599;SDS011;65489;52.048;6.090;2023-05-10T06:28:54;1.35;;;1.20;;
76599;SDS011;65489;52.048;6.090;2023-05-10T06:31:19;1.90;;;1.60;;
76599;SDS011;65489;52.048;6.090;2023-05-10T06:33:45;1.30;;;1.10;;
76599;SDS011;65489;52.048;6.090;2023-05-10T06:36:11;1.95;;;1.35;;
76599;SDS011;65489;52.048;6.090;2023-05-10T06:38:36;1.40;;;1.30;;
76599;SDS011;65489;52.048;6.090;2023-05-10T06:41:02;1.50;;;1.27;;
76599;SDS011;65489;52.048;6.090;2023-05-10T06:43:28;1.88;;;1.20;;
76599;SDS011;65489;52.048;6.090;2023-05-10T06:45:53;1.75;;;1.40;;
76599;SDS011;65489;52.048;6.090;2023-05-10T06:48:19;4.57;;;2.88;;
76599;SDS011;65489;52.048;6.090;2023-05-10T06:50:44;2.17;;;1.40;;
76599;SDS011;65489;52.048;6.090;2023-05-10T06:53:10;2.05;;;1.48;;
76599;SDS011;65489;52.048;6.090;2023-05-10T06:55:36;5.68;;;2.97;;
76599;SDS011;65489;52.048;6.090;2023-05-10T06:58:02;2.50;;;2.00;;
76599;SDS011;65489;52.048;6.090;2023-05-10T07:00:27;2.42;;;1.88;;
76599;SDS011;65489;52.048;6.090;2023-05-10T07:02:53;6.05;;;3.42;;
76599;SDS011;65489;52.048;6.090;2023-05-10T07:05:18;3.78;;;2.45;;
76599;SDS011;65489;52.048;6.090;2023-05-10T07:07:44;4.18;;;2.80;;
76599;SDS011;65489;52.048;6.090;2023-05-10T07:10:10;5.13;;;3.38;;
76599;SDS011;65489;52.048;6.090;2023-05-10T07:12:35;3.53;;;2.30;;
76599;SDS011;65489;52.048;6.090;2023-05-10T07:15:01;2.13;;;1.90;;
76599;SDS011;65489;52.048;6.090;2023-05-10T07:17:26;3.10;;;1.90;;
76599;SDS011;65489;52.048;6.090;2023-05-10T07:19:52;5.45;;;2.38;;
76599;SDS011;65489;52.048;6.090;2023-05-10T07:22:17;1.70;;;1.60;;
76599;SDS011;65489;52.048;6.090;2023-05-10T07:24:43;3.35;;;2.20;;
76599;SDS011;65489;52.048;6.090;2023-05-10T07:27:08;2.38;;;1.83;;
76599;SDS011;65489;52.048;6.090;2023-05-10T07:29:34;4.18;;;2.20;;
76599;SDS011;65489;52.048;6.090;2023-05-10T07:32:00;4.57;;;2.78;;
76599;SDS011;65489;52.048;6.090;2023-05-10T07:34:26;4.20;;;2.13;;
76599;SDS011;65489;52.048;6.090;2023-05-10T07:36:51;3.90;;;1.90;;
76599;SDS011;65489;52.048;6.090;2023-05-10T07:39:17;3.30;;;2.22;;
76599;SDS011;65489;52.048;6.090;2023-05-10T07:41:43;4.20;;;2.10;;
76599;SDS011;65489;52.048;6.090;2023-05-10T07:44:08;3.47;;;2.17;;
76599;SDS011;65489;52.048;6.090;2023-05-10T07:46:34;2.95;;;1.90;;
76599;SDS011;65489;52.048;6.090;2023-05-10T07:48:59;4.70;;;2.05;;
76599;SDS011;65489;52.048;6.090;2023-05-10T07:51:24;4.72;;;2.45;;
76599;SDS011;65489;52.048;6.090;2023-05-10T07:53:50;5.15;;;2.45;;
76599;SDS011;65489;52.048;6.090;2023-05-10T07:58:48;4.35;;;2.38;;
76599;SDS011;65489;52.048;6.090;2023-05-10T08:01:14;4.03;;;2.60;;
76599;SDS011;65489;52.048;6.090;2023-05-10T08:03:39;4.40;;;2.40;;
76599;SDS011;65489;52.048;6.090;2023-05-10T08:06:05;5.78;;;3.50;;
76599;SDS011;65489;52.048;6.090;2023-05-10T08:08:31;3.25;;;2.33;;
76599;SDS011;65489;52.048;6.090;2023-05-10T08:10:56;4.43;;;2.60;;
76599;SDS011;65489;52.048;6.090;2023-05-10T08:13:21;2.97;;;2.15;;
76599;SDS011;65489;52.048;6.090;2023-05-10T08:15:47;3.22;;;2.20;;
76599;SDS011;65489;52.048;6.090;2023-05-10T08:18:12;3.30;;;2.20;;
76599;SDS011;65489;52.048;6.090;2023-05-10T08:20:38;4.72;;;2.55;;
76599;SDS011;65489;52.048;6.090;2023-05-10T08:23:03;4.50;;;2.83;;
76599;SDS011;65489;52.048;6.090;2023-05-10T08:25:29;4.68;;;2.28;;
76599;SDS011;65489;52.048;6.090;2023-05-10T08:27:54;4.68;;;2.25;;
76599;SDS011;65489;52.048;6.090;2023-05-10T08:30:20;4.20;;;2.47;;
76599;SDS011;65489;52.048;6.090;2023-05-10T08:32:45;5.00;;;2.55;;
76599;SDS011;65489;52.048;6.090;2023-05-10T08:35:11;3.55;;;2.45;;
76599;SDS011;65489;52.048;6.090;2023-05-10T08:37:36;4.53;;;2.53;;
76599;SDS011;65489;52.048;6.090;2023-05-10T08:40:02;4.30;;;2.50;;
76599;SDS011;65489;52.048;6.090;2023-05-10T08:42:28;6.47;;;3.28;;
76599;SDS011;65489;52.048;6.090;2023-05-10T08:44:55;4.70;;;2.80;;
76599;SDS011;65489;52.048;6.090;2023-05-10T08:47:22;4.72;;;2.45;;
76599;SDS011;65489;52.048;6.090;2023-05-10T08:49:47;3.50;;;2.55;;
76599;SDS011;65489;52.048;6.090;2023-05-10T08:52:16;4.00;;;2.38;;
76599;SDS011;65489;52.048;6.090;2023-05-10T08:54:43;6.18;;;3.30;;
76599;SDS011;65489;52.048;6.090;2023-05-10T08:57:09;6.80;;;3.40;;
76599;SDS011;65489;52.048;6.090;2023-05-10T08:59:35;6.88;;;2.70;;
76599;SDS011;65489;52.048;6.090;2023-05-10T09:02:03;4.65;;;3.08;;
76599;SDS011;65489;52.048;6.090;2023-05-10T09:04:29;4.78;;;3.30;;
76599;SDS011;65489;52.048;6.090;2023-05-10T09:06:55;4.50;;;2.80;;
76599;SDS011;65489;52.048;6.090;2023-05-10T09:09:21;4.00;;;2.70;;
76599;SDS011;65489;52.048;6.090;2023-05-10T09:11:47;4.82;;;2.58;;
76599;SDS011;65489;52.048;6.090;2023-05-10T09:14:12;4.15;;;2.50;;
76599;SDS011;65489;52.048;6.090;2023-05-10T09:16:38;5.95;;;2.92;;
76599;SDS011;65489;52.048;6.090;2023-05-10T09:19:04;5.10;;;3.03;;
76599;SDS011;65489;52.048;6.090;2023-05-10T09:21:30;4.75;;;3.35;;
76599;SDS011;65489;52.048;6.090;2023-05-10T09:23:56;5.45;;;3.00;;
76599;SDS011;65489;52.048;6.090;2023-05-10T09:26:22;3.67;;;2.72;;
76599;SDS011;65489;52.048;6.090;2023-05-10T09:28:51;5.07;;;2.70;;
76599;SDS011;65489;52.048;6.090;2023-05-10T09:31:21;4.65;;;3.00;;
76599;SDS011;65489;52.048;6.090;2023-05-10T09:33:46;4.13;;;2.90;;
76599;SDS011;65489;52.048;6.090;2023-05-10T09:36:13;4.65;;;2.63;;
76599;SDS011;65489;52.048;6.090;2023-05-10T09:38:48;3.22;;;2.35;;
76599;SDS011;65489;52.048;6.090;2023-05-10T09:41:22;5.45;;;2.65;;
76599;SDS011;65489;52.048;6.090;2023-05-10T09:43:48;4.65;;;3.33;;
76599;SDS011;65489;52.048;6.090;2023-05-10T09:46:17;4.32;;;2.72;;
76599;SDS011;65489;52.048;6.090;2023-05-10T09:48:46;3.78;;;2.97;;
76599;SDS011;65489;52.048;6.090;2023-05-10T09:51:22;3.72;;;2.42;;
76599;SDS011;65489;52.048;6.090;2023-05-10T09:54:08;3.35;;;2.35;;
76599;SDS011;65489;52.048;6.090;2023-05-10T09:56:38;4.40;;;2.28;;
76599;SDS011;65489;52.048;6.090;2023-05-10T09:59:05;4.35;;;2.67;;
76599;SDS011;65489;52.048;6.090;2023-05-10T10:01:32;3.55;;;2.60;;
76599;SDS011;65489;52.048;6.090;2023-05-10T10:03:58;3.78;;;2.55;;
76599;SDS011;65489;52.048;6.090;2023-05-10T10:06:24;3.75;;;2.50;;
76599;SDS011;65489;52.048;6.090;2023-05-10T10:08:50;3.33;;;2.13;;
76599;SDS011;65489;52.048;6.090;2023-05-10T10:11:16;4.35;;;2.67;;
76599;SDS011;65489;52.048;6.090;2023-05-10T10:13:42;3.30;;;2.50;;
76599;SDS011;65489;52.048;6.090;2023-05-10T10:16:08;4.65;;;2.28;;
76599;SDS011;65489;52.048;6.090;2023-05-10T10:18:34;5.68;;;2.78;;
76599;SDS011;65489;52.048;6.090;2023-05-10T10:21:04;3.38;;;2.35;;
76599;SDS011;65489;52.048;6.090;2023-05-10T10:23:36;3.40;;;2.35;;
76599;SDS011;65489;52.048;6.090;2023-05-10T10:26:02;3.72;;;2.50;;
76599;SDS011;65489;52.048;6.090;2023-05-10T10:31:20;3.20;;;2.47;;
76599;SDS011;65489;52.048;6.090;2023-05-10T10:34:05;4.60;;;2.80;;
76599;SDS011;65489;52.048;6.090;2023-05-10T10:36:32;3.53;;;2.47;;
76599;SDS011;65489;52.048;6.090;2023-05-10T10:39:07;3.75;;;2.40;;
76599;SDS011;65489;52.048;6.090;2023-05-10T10:41:35;3.45;;;2.30;;
76599;SDS011;65489;52.048;6.090;2023-05-10T10:44:35;3.30;;;2.38;;
76599;SDS011;65489;52.048;6.090;2023-05-10T10:52:35;4.07;;;2.17;;
76599;SDS011;65489;52.048;6.090;2023-05-10T10:55:02;2.95;;;2.28;;
76599;SDS011;65489;52.048;6.090;2023-05-10T10:57:48;3.35;;;2.92;;
76599;SDS011;65489;52.048;6.090;2023-05-10T11:00:29;3.25;;;2.38;;
76599;SDS011;65489;52.048;6.090;2023-05-10T11:03:00;3.88;;;2.38;;
76599;SDS011;65489;52.048;6.090;2023-05-10T11:08:02;4.10;;;3.20;;
76599;SDS011;65489;52.048;6.090;2023-05-10T11:10:32;3.60;;;2.60;;
76599;SDS011;65489;52.048;6.090;2023-05-10T11:13:01;3.60;;;2.83;;
76599;SDS011;65489;52.048;6.090;2023-05-10T11:17:56;4.40;;;2.90;;
76599;SDS011;65489;52.048;6.090;2023-05-10T11:20:22;5.47;;;2.95;;
76599;SDS011;65489;52.048;6.090;2023-05-10T11:22:50;4.35;;;3.35;;
76599;SDS011;65489;52.048;6.090;2023-05-10T11:25:16;4.15;;;2.60;;
76599;SDS011;65489;52.048;6.090;2023-05-10T11:27:42;6.00;;;2.90;;
76599;SDS011;65489;52.048;6.090;2023-05-10T11:30:09;5.45;;;2.90;;
76599;SDS011;65489;52.048;6.090;2023-05-10T11:32:38;3.30;;;2.58;;
76599;SDS011;65489;52.048;6.090;2023-05-10T11:35:11;3.42;;;2.80;;
76599;SDS011;65489;52.048;6.090;2023-05-10T11:37:38;4.20;;;2.78;;
76599;SDS011;65489;52.048;6.090;2023-05-10T11:40:07;2.88;;;2.10;;
76599;SDS011;65489;52.048;6.090;2023-05-10T11:42:36;3.53;;;2.67;;
76599;SDS011;65489;52.048;6.090;2023-05-10T11:45:02;4.38;;;2.25;;
76599;SDS011;65489;52.048;6.090;2023-05-10T11:47:27;3.63;;;2.35;;
76599;SDS011;65489;52.048;6.090;2023-05-10T11:49:53;3.40;;;2.25;;
76599;SDS011;65489;52.048;6.090;2023-05-10T11:52:18;3.72;;;2.20;;
76599;SDS011;65489;52.048;6.090;2023-05-10T11:54:51;4.38;;;1.95;;
76599;SDS011;65489;52.048;6.090;2023-05-10T11:57:18;2.83;;;2.25;;
76599;SDS011;65489;52.048;6.090;2023-05-10T11:59:44;2.30;;;1.73;;
76599;SDS011;65489;52.048;6.090;2023-05-10T12:02:10;2.05;;;1.83;;
76599;SDS011;65489;52.048;6.090;2023-05-10T12:04:37;3.15;;;1.98;;
76599;SDS011;65489;52.048;6.090;2023-05-10T12:07:02;3.30;;;2.03;;
76599;SDS011;65489;52.048;6.090;2023-05-10T12:09:28;2.40;;;2.08;;
76599;SDS011;65489;52.048;6.090;2023-05-10T12:11:55;2.67;;;1.83;;
76599;SDS011;65489;52.048;6.090;2023-05-10T12:14:22;2.20;;;1.93;;
76599;SDS011;65489;52.048;6.090;2023-05-10T12:16:47;2.80;;;2.08;;
76599;SDS011;65489;52.048;6.090;2023-05-10T12:19:13;2.97;;;2.20;;
76599;SDS011;65489;52.048;6.090;2023-05-10T12:21:43;3.30;;;2.42;;
76599;SDS011;65489;52.048;6.090;2023-05-10T12:24:09;3.97;;;2.10;;
76599;SDS011;65489;52.048;6.090;2023-05-10T12:26:35;4.00;;;2.15;;
76599;SDS011;65489;52.048;6.090;2023-05-10T12:31:54;3.22;;;2.00;;
76599;SDS011;65489;52.048;6.090;2023-05-10T12:34:31;3.83;;;2.28;;
76599;SDS011;65489;52.048;6.090;2023-05-10T12:37:01;3.65;;;2.47;;
76599;SDS011;65489;52.048;6.090;2023-05-10T12:39:38;2.88;;;2.00;;
76599;SDS011;65489;52.048;6.090;2023-05-10T12:42:07;2.55;;;2.05;;
76599;SDS011;65489;52.048;6.090;2023-05-10T12:44:32;4.07;;;2.30;;
76599;SDS011;65489;52.048;6.090;2023-05-10T12:46:58;3.45;;;2.20;;
76599;SDS011;65489;52.048;6.090;2023-05-10T12:49:23;3.90;;;2.50;;
76599;SDS011;65489;52.048;6.090;2023-05-10T12:51:48;3.00;;;2.08;;
76599;SDS011;65489;52.048;6.090;2023-05-10T12:54:14;3.47;;;2.03;;
76599;SDS011;65489;52.048;6.090;2023-05-10T12:56:40;3.03;;;2.10;;
76599;SDS011;65489;52.048;6.090;2023-05-10T12:59:07;4.70;;;2.63;;
76599;SDS011;65489;52.048;6.090;2023-05-10T13:01:33;4.32;;;2.10;;
76599;SDS011;65489;52.048;6.090;2023-05-10T13:03:58;3.28;;;2.30;;
76599;SDS011;65489;52.048;6.090;2023-05-10T13:06:25;2.20;;;2.00;;
76599;SDS011;65489;52.048;6.090;2023-05-10T13:08:50;2.50;;;2.10;;
76599;SDS011;65489;52.048;6.090;2023-05-10T13:11:16;2.92;;;2.38;;
76599;SDS011;65489;52.048;6.090;2023-05-10T13:13:42;2.03;;;1.80;;
76599;SDS011;65489;52.048;6.090;2023-05-10T13:16:07;2.28;;;1.90;;
76599;SDS011;65489;52.048;6.090;2023-05-10T13:18:33;2.15;;;1.80;;
76599;SDS011;65489;52.048;6.090;2023-05-10T13:20:58;2.47;;;1.75;;
76599;SDS011;65489;52.048;6.090;2023-05-10T13:23:24;2.30;;;2.10;;
76599;SDS011;65489;52.048;6.090;2023-05-10T13:25:49;1.75;;;1.63;;
76599;SDS011;65489;52.048;6.090;2023-05-10T13:28:15;2.92;;;2.20;;
76599;SDS011;65489;52.048;6.090;2023-05-10T13:30:40;3.15;;;2.10;;
76599;SDS011;65489;52.048;6.090;2023-05-10T13:33:06;2.95;;;2.10;;
76599;SDS011;65489;52.048;6.090;2023-05-10T13:35:31;2.35;;;1.98;;
76599;SDS011;65489;52.048;6.090;2023-05-10T13:37:57;3.15;;;2.70;;
76599;SDS011;65489;52.048;6.090;2023-05-10T13:40:22;3.38;;;1.98;;
76599;SDS011;65489;52.048;6.090;2023-05-10T13:42:48;3.17;;;2.35;;
76599;SDS011;65489;52.048;6.090;2023-05-10T13:45:13;2.92;;;1.75;;
76599;SDS011;65489;52.048;6.090;2023-05-10T13:47:39;3.38;;;1.98;;
76599;SDS011;65489;52.048;6.090;2023-05-10T13:50:04;3.78;;;2.20;;
76599;SDS011;65489;52.048;6.090;2023-05-10T13:52:30;2.70;;;1.90;;
76599;SDS011;65489;52.048;6.090;2023-05-10T13:54:55;2.35;;;1.60;;
76599;SDS011;65489;52.048;6.090;2023-05-10T13:57:21;2.47;;;1.80;;
76599;SDS011;65489;52.048;6.090;2023-05-10T13:59:47;1.77;;;1.65;;
76599;SDS011;65489;52.048;6.090;2023-05-10T14:02:13;2.13;;;1.92;;
76599;SDS011;65489;52.048;6.090;2023-05-10T14:04:38;2.03;;;1.63;;
76599;SDS011;65489;52.048;6.090;2023-05-10T14:07:04;3.30;;;1.67;;
76599;SDS011;65489;52.048;6.090;2023-05-10T14:09:29;1.63;;;1.50;;
76599;SDS011;65489;52.048;6.090;2023-05-10T14:11:55;2.53;;;1.60;;
76599;SDS011;65489;52.048;6.090;2023-05-10T14:14:21;2.80;;;1.88;;
76599;SDS011;65489;52.048;6.090;2023-05-10T14:16:46;2.00;;;1.70;;
76599;SDS011;65489;52.048;6.090;2023-05-10T14:19:12;1.63;;;1.35;;
76599;SDS011;65489;52.048;6.090;2023-05-10T14:21:37;1.90;;;1.60;;
76599;SDS011;65489;52.048;6.090;2023-05-10T14:24:03;1.70;;;1.50;;
76599;SDS011;65489;52.048;6.090;2023-05-10T14:26:29;1.55;;;1.38;;
76599;SDS011;65489;52.048;6.090;2023-05-10T14:28:54;3.20;;;1.65;;
76599;SDS011;65489;52.048;6.090;2023-05-10T14:31:20;2.90;;;1.73;;
76599;SDS011;65489;52.048;6.090;2023-05-10T14:33:46;1.75;;;1.60;;
76599;SDS011;65489;52.048;6.090;2023-05-10T14:36:12;2.83;;;1.50;;
76599;SDS011;65489;52.048;6.090;2023-05-10T14:38:38;2.10;;;1.33;;
76599;SDS011;65489;52.048;6.090;2023-05-10T14:41:04;1.95;;;1.63;;
76599;SDS011;65489;52.048;6.090;2023-05-10T14:43:30;2.10;;;1.77;;
76599;SDS011;65489;52.048;6.090;2023-05-10T14:45:55;1.95;;;1.50;;
76599;SDS011;65489;52.048;6.090;2023-05-10T14:48:21;3.10;;;1.73;;
76599;SDS011;65489;52.048;6.090;2023-05-10T14:50:46;2.03;;;1.80;;
76599;SDS011;65489;52.048;6.090;2023-05-10T14:53:12;1.40;;;1.30;;
76599;SDS011;65489;52.048;6.090;2023-05-10T14:55:37;1.73;;;1.60;;
76599;SDS011;65489;52.048;6.090;2023-05-10T14:58:04;2.25;;;1.67;;
76599;SDS011;65489;52.048;6.090;2023-05-10T15:00:29;2.55;;;1.90;;
76599;SDS011;65489;52.048;6.090;2023-05-10T15:02:54;2.83;;;1.65;;
76599;SDS011;65489;52.048;6.090;2023-05-10T15:05:20;1.98;;;1.70;;
76599;SDS011;65489;52.048;6.090;2023-05-10T15:07:45;2.88;;;1.58;;
76599;SDS011;65489;52.048;6.090;2023-05-10T15:10:11;2.40;;;2.00;;
76599;SDS011;65489;52.048;6.090;2023-05-10T15:12:36;3.10;;;1.85;;